Time;durP1;ratioP1;P1;durP2;ratioP2;P2;SDS_P1;SDS_P2;PMS_P1;PMS_P2;Temp;Humidity;BMP_temperature;BMP_pressure;BME280_temperature;BME280_humidity;BME280_pressure;Samples;Min_cycle;Max_cycle;Signal;HPM_P1;HPM_P2
2024/04/10 00:01:05;;;;;;;2.50;1.40;;;10.00;99.90;;;;;;5453246;26;20570;-71
2024/04/10 00:03:31;;;;;;;6.77;1.57;;;10.00;99.90;;;;;;5453081;26;20262;-71
2024/04/10 00:06:04;;;;;;;6.10;1.53;;;10.00;99.90;;;;;;5453293;26;20493;-71
2024/04/10 00:08:32;;;;;;;7.83;1.37;;;10.00;99.90;;;;;;5452837;26;20485;-72
2024/04/10 00:11:00;;;;;;;7.83;2.07;;;10.00;99.90;;;;;;5453167;26;20449;-72
2024/04/10 00:13:26;;;;;;;11.23;2.00;;;9.90;99.90;;;;;;5452454;26;20524;-72
2024/04/10 00:15:58;;;;;;;5.30;1.83;;;10.10;99.90;;;;;;5452442;26;20445;-72
2024/04/10 00:18:24;;;;;;;3.23;1.30;;;10.10;99.90;;;;;;5453078;26;20211;-71
2024/04/10 00:20:49;;;;;;;4.90;2.00;;;10.10;99.90;;;;;;5452283;26;21047;-72
2024/04/10 00:23:15;;;;;;;4.87;1.40;;;10.10;99.90;;;;;;5452955;26;20540;-71
2024/04/10 00:25:41;;;;;;;12.03;2.57;;;10.10;99.90;;;;;;5451583;26;20304;-72
2024/04/10 00:28:06;;;;;;;5.30;2.00;;;10.00;99.90;;;;;;5453156;26;20480;-72
2024/04/10 00:30:32;;;;;;;6.23;2.10;;;10.10;99.90;;;;;;5452314;26;20236;-72
2024/04/10 00:32:57;;;;;;;6.40;1.73;;;10.00;99.90;;;;;;5452777;26;20246;-71
2024/04/10 00:35:23;;;;;;;8.83;1.67;;;10.00;99.90;;;;;;5452667;26;20207;-71
2024/04/10 00:37:48;;;;;;;5.07;1.70;;;10.00;99.90;;;;;;5452847;26;20204;-70
2024/04/10 00:40:14;;;;;;;6.50;1.93;;;10.00;99.90;;;;;;5450516;26;20227;-72
2024/04/10 00:42:39;;;;;;;6.70;1.50;;;10.00;99.90;;;;;;5452787;26;20602;-71
2024/04/10 00:45:05;;;;;;;7.93;1.80;;;10.10;99.90;;;;;;5452752;26;20283;-70
2024/04/10 00:47:31;;;;;;;13.17;2.20;;;10.10;99.90;;;;;;5452580;26;20211;-71
2024/04/10 00:49:57;;;;;;;17.90;1.97;;;10.00;99.90;;;;;;5452186;26;20258;-71
2024/04/10 00:52:23;;;;;;;7.23;1.67;;;10.00;99.90;;;;;;5452997;26;20219;-70
2024/04/10 00:54:49;;;;;;;2.57;1.30;;;10.10;99.90;;;;;;5452552;26;21031;-71
2024/04/10 00:57:14;;;;;;;4.47;1.77;;;10.00;99.90;;;;;;5452328;26;20432;-70
2024/04/10 00:59:40;;;;;;;3.10;1.30;;;10.00;99.90;;;;;;5452013;26;20597;-71
2024/04/10 01:02:07;;;;;;;12.77;1.90;;;9.80;99.90;;;;;;5452180;26;20215;-71
2024/04/10 01:04:33;;;;;;;9.53;2.20;;;9.80;99.90;;;;;;5452413;26;20219;-71
2024/04/10 01:06:58;;;;;;;13.73;1.90;;;9.70;99.90;;;;;;5452565;26;20497;-70
2024/04/10 01:09:24;;;;;;;5.90;1.97;;;9.70;99.90;;;;;;5451844;26;20503;-71
2024/04/10 01:11:49;;;;;;;4.10;1.50;;;9.60;99.90;;;;;;5452350;26;20224;-71
2024/04/10 01:14:16;;;;;;;4.27;1.90;;;9.60;99.90;;;;;;5451835;26;20215;-71
2024/04/10 01:16:42;;;;;;;4.93;1.50;;;9.40;99.90;;;;;;5452090;26;20250;-71
2024/04/10 01:19:08;;;;;;;4.13;1.60;;;9.40;99.90;;;;;;5451804;26;20437;-71
2024/04/10 01:21:34;;;;;;;5.20;1.77;;;9.30;99.90;;;;;;5452316;26;20253;-71
2024/04/10 01:24:00;;;;;;;4.93;1.30;;;9.20;99.90;;;;;;5452169;26;20429;-72
2024/04/10 01:26:25;;;;;;;9.17;2.03;;;9.20;99.90;;;;;;5450516;26;20436;-71
2024/04/10 01:28:51;;;;;;;5.00;1.37;;;9.10;99.90;;;;;;5451536;26;20284;-71
2024/04/10 01:31:16;;;;;;;4.90;2.23;;;9.10;99.90;;;;;;5451817;26;20219;-71
2024/04/10 01:33:42;;;;;;;7.13;1.97;;;9.00;99.90;;;;;;5451955;26;20207;-71
2024/04/10 01:36:07;;;;;;;7.37;2.27;;;8.90;99.90;;;;;;5451988;26;20808;-72
2024/04/10 01:38:33;;;;;;;5.37;1.50;;;8.90;99.90;;;;;;5451505;26;20320;-73
2024/04/10 01:40:59;;;;;;;10.60;3.93;;;8.90;99.90;;;;;;5451891;26;20323;-72
2024/04/10 01:43:24;;;;;;;7.20;1.30;;;8.90;99.90;;;;;;5451969;26;20795;-72
2024/04/10 01:45:50;;;;;;;4.13;1.67;;;8.80;99.90;;;;;;5451562;26;20259;-72
2024/04/10 01:48:16;;;;;;;5.27;1.23;;;8.80;99.90;;;;;;5451833;26;20250;-73
2024/04/10 01:50:42;;;;;;;4.30;3.10;;;8.70;99.90;;;;;;5449507;26;20232;-72
2024/04/10 01:53:08;;;;;;;3.97;1.43;;;8.60;99.90;;;;;;5451834;26;20320;-72
2024/04/10 01:55:33;;;;;;;7.50;1.83;;;8.60;99.90;;;;;;5451683;26;20444;-72
2024/04/10 01:57:59;;;;;;;1.63;1.23;;;8.60;99.90;;;;;;5451595;26;20219;-72
2024/04/10 02:00:25;;;;;;;12.60;2.43;;;8.60;99.90;;;;;;5449293;26;20224;-72
2024/04/10 02:02:51;;;;;;;5.50;1.80;;;8.50;99.90;;;;;;5451430;26;20262;-71
2024/04/10 02:05:16;;;;;;;13.43;2.50;;;8.50;99.90;;;;;;5451608;26;20492;-72
2024/04/10 02:07:42;;;;;;;6.43;2.10;;;8.50;99.90;;;;;;5451889;26;20212;-74
2024/04/10 02:10:07;;;;;;;8.10;1.97;;;8.50;99.90;;;;;;5451185;26;20235;-71
2024/04/10 02:12:33;;;;;;;7.87;1.67;;;8.50;99.90;;;;;;5451356;26;20216;-71
2024/04/10 02:14:58;;;;;;;5.50;1.80;;;8.50;99.90;;;;;;5449457;26;20219;-71
2024/04/10 02:17:24;;;;;;;4.90;1.40;;;8.40;99.90;;;;;;5451647;26;20215;-72
2024/04/10 02:19:50;;;;;;;12.40;2.33;;;8.40;99.90;;;;;;5450853;26;20265;-72
2024/04/10 02:22:16;;;;;;;16.93;5.70;;;8.30;99.90;;;;;;5450082;26;20211;-72
2024/04/10 02:24:41;;;;;;;10.90;2.83;;;8.30;99.90;;;;;;5449870;26;20807;-73
2024/04/10 02:27:07;;;;;;;4.83;1.50;;;8.30;99.90;;;;;;5448663;26;20207;-71
2024/04/10 02:29:33;;;;;;;10.60;2.40;;;8.40;99.90;;;;;;5448209;26;20266;-72
2024/04/10 02:31:58;;;;;;;13.67;2.00;;;8.30;99.90;;;;;;5450172;26;20691;-72
2024/04/10 02:34:24;;;;;;;5.83;2.07;;;8.20;99.90;;;;;;5451533;26;20211;-73
2024/04/10 02:36:49;;;;;;;3.30;1.40;;;8.30;99.90;;;;;;5449956;26;20212;-72
2024/04/10 02:39:15;;;;;;;11.33;2.60;;;8.20;99.90;;;;;;5453899;26;20249;-72
2024/04/10 02:41:40;;;;;;;16.00;2.80;;;8.20;99.90;;;;;;5452788;26;20215;-72
2024/04/10 02:44:06;;;;;;;6.83;1.70;;;8.30;99.90;;;;;;5451981;26;20254;-72
2024/04/10 02:46:31;;;;;;;4.70;2.20;;;8.20;99.90;;;;;;5418584;26;20255;-73
2024/04/10 02:48:57;;;;;;;5.13;2.20;;;8.20;99.90;;;;;;5417822;26;20256;-72
2024/04/10 02:51:23;;;;;;;14.60;4.50;;;8.20;99.90;;;;;;5418305;26;20259;-72
2024/04/10 02:53:48;;;;;;;5.07;1.77;;;8.10;99.90;;;;;;5418378;26;20208;-72
2024/04/10 02:56:14;;;;;;;3.67;1.87;;;8.10;99.90;;;;;;5418354;26;20239;-72
2024/04/10 02:58:40;;;;;;;7.40;1.70;;;8.10;99.90;;;;;;5417826;26;20216;-72
2024/04/10 03:01:06;;;;;;;11.17;1.53;;;8.00;99.90;;;;;;5418323;26;20228;-72
2024/04/10 03:03:31;;;;;;;9.70;2.27;;;8.00;99.90;;;;;;5418237;26;20458;-70
2024/04/10 03:06:07;;;;;;;5.17;1.97;;;8.00;99.90;;;;;;5418237;26;20568;-71
2024/04/10 03:08:34;;;;;;;11.57;2.00;;;7.90;99.90;;;;;;5417989;26;20209;-72
2024/04/10 03:11:00;;;;;;;8.47;2.60;;;7.90;99.90;;;;;;5418187;26;20505;-72
2024/04/10 03:13:26;;;;;;;3.73;2.03;;;7.90;99.90;;;;;;5417951;26;20848;-71
2024/04/10 03:15:52;;;;;;;11.40;1.57;;;7.90;99.90;;;;;;5416182;26;20512;-72
2024/04/10 03:18:17;;;;;;;5.00;1.80;;;7.90;99.90;;;;;;5418013;26;20528;-71
2024/04/10 03:20:43;;;;;;;11.50;2.60;;;7.80;99.90;;;;;;5415763;26;20328;-71
2024/04/10 03:23:09;;;;;;;9.80;2.07;;;7.80;99.90;;;;;;5417614;26;20688;-72
2024/04/10 03:25:34;;;;;;;9.90;1.80;;;7.80;99.90;;;;;;5417771;26;20439;-72
2024/04/10 03:28:00;;;;;;;8.87;1.83;;;7.80;99.90;;;;;;5417020;26;20209;-72
2024/04/10 03:30:27;;;;;;;6.37;2.20;;;7.80;99.90;;;;;;5416210;26;20704;-72
2024/04/10 03:32:53;;;;;;;2.47;1.17;;;7.80;99.90;;;;;;5417664;26;20491;-72
2024/04/10 03:35:19;;;;;;;3.90;1.20;;;7.70;99.90;;;;;;5417442;26;20857;-71
2024/04/10 03:37:45;;;;;;;6.73;1.80;;;7.70;99.90;;;;;;5417866;26;20521;-72
2024/04/10 03:40:11;;;;;;;3.70;1.60;;;7.70;99.90;;;;;;5417091;26;20504;-71
2024/04/10 03:42:37;;;;;;;14.00;2.00;;;7.70;99.90;;;;;;5417630;26;20431;-72
2024/04/10 03:45:03;;;;;;;7.50;1.40;;;7.70;99.90;;;;;;5415689;26;20217;-72
2024/04/10 03:47:29;;;;;;;4.60;1.77;;;7.70;99.90;;;;;;5417646;26;20441;-71
2024/04/10 03:49:55;;;;;;;5.13;1.90;;;7.70;99.90;;;;;;5416083;26;20508;-71
2024/04/10 03:52:20;;;;;;;4.50;1.80;;;7.70;99.90;;;;;;5416170;26;20446;-71
2024/04/10 03:54:46;;;;;;;7.87;2.07;;;7.70;99.90;;;;;;5417437;26;20992;-71
2024/04/10 03:57:11;;;;;;;3.37;1.70;;;7.70;99.90;;;;;;5417382;26;20247;-72
2024/04/10 03:59:37;;;;;;;5.80;1.53;;;7.70;99.90;;;;;;5416896;26;20292;-72
2024/04/10 04:02:02;;;;;;;3.33;1.87;;;7.70;99.90;;;;;;5417360;26;20623;-71
2024/04/10 04:04:28;;;;;;;11.30;2.20;;;7.70;99.90;;;;;;5417352;26;20294;-71
2024/04/10 04:06:54;;;;;;;3.30;1.57;;;7.80;99.90;;;;;;5417659;26;20256;-71
2024/04/10 04:09:19;;;;;;;14.13;2.23;;;7.80;99.90;;;;;;5414897;26;20518;-71
2024/04/10 04:11:46;;;;;;;8.53;4.50;;;7.80;99.90;;;;;;5417081;26;20212;-71
2024/04/10 04:14:11;;;;;;;13.90;6.37;;;7.80;99.90;;;;;;5416472;26;20435;-72
2024/04/10 04:16:37;;;;;;;10.80;1.80;;;7.70;99.90;;;;;;5414798;26;20221;-71
2024/04/10 04:19:02;;;;;;;10.50;2.00;;;7.70;99.90;;;;;;5416990;26;20627;-71
2024/04/10 04:21:28;;;;;;;8.30;2.10;;;7.80;99.90;;;;;;5417056;26;20276;-72
2024/04/10 04:23:54;;;;;;;4.37;1.50;;;7.70;99.90;;;;;;5417227;26;20548;-71
2024/04/10 04:26:20;;;;;;;4.53;1.90;;;7.60;99.90;;;;;;5415239;26;20462;-71
2024/04/10 04:28:46;;;;;;;8.67;1.90;;;7.60;99.90;;;;;;5416835;26;20213;-71
2024/04/10 04:31:14;;;;;;;6.57;2.00;;;7.60;99.90;;;;;;5416759;26;20454;-70
2024/04/10 04:33:40;;;;;;;11.83;3.07;;;7.50;99.90;;;;;;5417039;26;20550;-71
2024/04/10 04:36:07;;;;;;;5.00;2.10;;;7.50;99.90;;;;;;5416881;26;20495;-72
2024/04/10 04:38:32;;;;;;;6.30;1.83;;;7.50;99.90;;;;;;5416557;26;20213;-71
2024/04/10 04:40:58;;;;;;;3.80;1.53;;;7.50;99.90;;;;;;5416446;26;20812;-71
2024/04/10 04:43:25;;;;;;;5.23;2.20;;;7.50;99.90;;;;;;5415775;26;20212;-71
2024/04/10 04:45:51;;;;;;;9.93;1.47;;;7.40;99.90;;;;;;5416787;26;20220;-71
2024/04/10 04:48:16;;;;;;;11.00;2.20;;;7.50;99.90;;;;;;5416572;26;20518;-71
2024/04/10 04:50:42;;;;;;;14.03;2.30;;;7.50;99.90;;;;;;5416164;26;20240;-72
2024/04/10 04:53:10;;;;;;;10.97;1.77;;;7.50;99.90;;;;;;5416486;26;20260;-72
2024/04/10 04:55:35;;;;;;;4.40;1.53;;;7.50;99.90;;;;;;5416506;26;20961;-70
2024/04/10 04:58:01;;;;;;;5.30;1.83;;;7.40;99.90;;;;;;5416894;26;20494;-70
2024/04/10 05:00:26;;;;;;;7.03;1.87;;;7.50;99.90;;;;;;5415844;26;20329;-71
2024/04/10 05:02:52;;;;;;;12.97;1.97;;;7.50;99.90;;;;;;5416386;26;20205;-71
2024/04/10 05:05:21;;;;;;;19.23;7.20;;;7.50;99.90;;;;;;5416516;26;20567;-71
2024/04/10 05:07:48;;;;;;;9.23;4.60;;;7.50;99.90;;;;;;5414554;26;20582;-71
2024/04/10 05:10:14;;;;;;;8.40;2.20;;;7.50;99.90;;;;;;5414193;26;20510;-70
2024/04/10 05:12:43;;;;;;;7.40;2.00;;;7.50;99.90;;;;;;5414566;26;20442;-72
2024/04/10 05:15:13;;;;;;;7.70;2.00;;;7.50;99.90;;;;;;5415805;26;20834;-72
2024/04/10 05:17:43;;;;;;;7.53;1.77;;;7.50;99.90;;;;;;5416284;26;20590;-72
2024/04/10 05:20:12;;;;;;;7.50;1.63;;;7.60;99.90;;;;;;5415552;26;20495;-72
2024/04/10 05:22:39;;;;;;;7.50;1.90;;;7.60;99.90;;;;;;5416260;26;21277;-71
2024/04/10 05:25:05;;;;;;;5.97;1.60;;;7.70;99.90;;;;;;5416191;26;20513;-72
2024/04/10 05:27:31;;;;;;;15.73;1.50;;;7.80;99.90;;;;;;5416287;26;20490;-72
2024/04/10 05:30:06;;;;;;;5.40;1.90;;;7.90;99.90;;;;;;5415712;26;20510;-72
2024/04/10 05:32:34;;;;;;;7.53;2.13;;;8.00;99.90;;;;;;5416210;26;20474;-72
2024/04/10 05:35:00;;;;;;;3.57;1.60;;;8.20;99.90;;;;;;5416445;26;20964;-71
2024/04/10 05:37:25;;;;;;;2.83;1.70;;;8.30;99.90;;;;;;5416163;26;20556;-71
2024/04/10 05:40:08;;;;;;;6.47;1.93;;;8.40;99.90;;;;;;5413686;26;20564;-72
2024/04/10 05:42:38;;;;;;;13.67;2.87;;;8.70;99.90;;;;;;5415982;26;20247;-71
2024/04/10 05:45:05;;;;;;;6.73;1.60;;;8.90;99.90;;;;;;5416137;26;20442;-72
2024/04/10 05:47:31;;;;;;;4.00;1.30;;;9.00;99.90;;;;;;5415950;26;20454;-72
2024/04/10 05:49:57;;;;;;;4.50;1.40;;;9.00;99.90;;;;;;5413602;26;20462;-72
2024/04/10 05:52:22;;;;;;;5.03;1.73;;;9.10;99.90;;;;;;5415954;26;20297;-72
2024/04/10 05:54:49;;;;;;;6.43;2.00;;;9.00;99.90;;;;;;5415857;26;20321;-72
2024/04/10 05:57:15;;;;;;;6.90;1.97;;;9.00;99.90;;;;;;5415827;26;20668;-72
2024/04/10 05:59:40;;;;;;;4.37;2.10;;;9.00;99.90;;;;;;5415400;26;20450;-72
2024/04/10 06:02:06;;;;;;;6.40;1.40;;;9.10;99.90;;;;;;5415644;26;20490;-71
2024/04/10 06:04:32;;;;;;;5.23;1.40;;;9.20;99.90;;;;;;5415962;26;20224;-70
2024/04/10 06:06:58;;;;;;;2.63;1.70;;;9.40;99.90;;;;;;5415633;26;20495;-72
2024/04/10 06:09:23;;;;;;;6.80;2.53;;;9.60;99.90;;;;;;5413349;26;20236;-71
2024/04/10 06:11:49;;;;;;;6.03;2.17;;;9.60;99.90;;;;;;5414700;26;20712;-71
2024/04/10 06:14:14;;;;;;;1.77;1.20;;;9.90;99.90;;;;;;5413885;26;20212;-71
2024/04/10 06:16:40;;;;;;;5.77;1.83;;;10.00;99.90;;;;;;5415398;26;20750;-71
2024/04/10 06:19:05;;;;;;;8.13;2.90;;;10.10;99.90;;;;;;5414972;26;20255;-72
2024/04/10 06:21:31;;;;;;;8.80;2.20;;;10.20;99.90;;;;;;5415486;26;20619;-71
2024/04/10 06:23:56;;;;;;;13.03;2.90;;;10.20;99.90;;;;;;5415245;26;20250;-71
2024/04/10 06:26:22;;;;;;;16.20;2.30;;;10.20;99.90;;;;;;5415334;26;20216;-71
2024/04/10 06:28:47;;;;;;;6.93;2.53;;;10.10;99.90;;;;;;5414785;26;20224;-72
2024/04/10 06:31:13;;;;;;;8.07;1.77;;;10.30;99.90;;;;;;5415262;26;20228;-71
2024/04/10 06:33:39;;;;;;;5.50;2.30;;;10.40;99.90;;;;;;5415296;26;20255;-71
2024/04/10 06:36:06;;;;;;;5.20;1.90;;;10.40;99.90;;;;;;5413444;26;20945;-72
2024/04/10 06:38:33;;;;;;;10.93;1.93;;;10.60;99.90;;;;;;5414850;26;20209;-71
2024/04/10 06:41:01;;;;;;;13.90;2.00;;;10.50;99.90;;;;;;5415120;26;20572;-71
2024/04/10 06:43:27;;;;;;;13.97;2.30;;;10.50;99.90;;;;;;5415029;26;20454;-70
2024/04/10 06:45:59;;;;;;;14.57;2.07;;;10.50;99.90;;;;;;5415098;26;20438;-72
2024/04/10 06:48:26;;;;;;;6.83;2.10;;;10.60;99.90;;;;;;5414976;26;20438;-72
2024/04/10 06:50:56;;;;;;;6.83;1.80;;;10.70;99.90;;;;;;5414626;26;20510;-71
2024/04/10 06:53:22;;;;;;;4.80;1.70;;;10.80;99.90;;;;;;5415089;26;20444;-72
2024/04/10 06:55:56;;;;;;;5.60;2.10;;;10.90;99.90;;;;;;5415135;26;20438;-71
2024/04/10 06:58:26;;;;;;;6.73;1.80;;;10.90;99.90;;;;;;5414725;26;20483;-70
2024/04/10 07:00:59;;;;;;;4.97;1.87;;;11.10;99.90;;;;;;5414349;26;20802;-71
2024/04/10 07:03:26;;;;;;;2.60;1.70;;;11.40;99.90;;;;;;5414715;26;20469;-70
2024/04/10 07:06:02;;;;;;;6.73;1.97;;;11.60;99.90;;;;;;5414673;26;20435;-71
2024/04/10 07:08:27;;;;;;;12.93;2.40;;;11.60;99.90;;;;;;5414527;26;20499;-71
2024/04/10 07:10:53;;;;;;;6.13;2.00;;;11.90;99.90;;;;;;5414041;26;20502;-71
2024/04/10 07:13:18;;;;;;;10.50;2.23;;;12.00;99.90;;;;;;5414610;26;20220;-71
2024/04/10 07:15:44;;;;;;;4.73;1.90;;;12.00;99.90;;;;;;5414396;26;20591;-73
2024/04/10 07:18:10;;;;;;;3.23;1.83;;;12.00;99.90;;;;;;5414286;26;20634;-70
2024/04/10 07:20:35;;;;;;;6.23;2.30;;;12.30;99.90;;;;;;5413887;26;20229;-71
2024/04/10 07:23:01;;;;;;;6.83;1.80;;;12.30;99.90;;;;;;5414276;26;20313;-71
2024/04/10 07:25:26;;;;;;;9.73;2.70;;;12.20;99.90;;;;;;5415191;26;20784;-71
2024/04/10 07:27:52;;;;;;;7.67;1.53;;;12.00;99.90;;;;;;5418335;26;20672;-71
2024/04/10 07:30:18;;;;;;;4.27;1.83;;;12.00;99.90;;;;;;5417525;26;20861;-71
2024/04/10 07:32:43;;;;;;;5.43;2.30;;;12.10;99.90;;;;;;5417891;26;20255;-71
2024/04/10 07:35:09;;;;;;;9.10;3.10;;;12.20;99.90;;;;;;5415965;26;20216;-72
2024/04/10 07:37:35;;;;;;;3.57;2.20;;;12.20;99.90;;;;;;5417176;26;20217;-72
2024/04/10 07:40:00;;;;;;;10.13;2.73;;;12.30;99.90;;;;;;5417175;26;20228;-72
2024/04/10 07:42:26;;;;;;;6.80;2.47;;;12.30;99.90;;;;;;5417632;26;20715;-72
2024/04/10 07:44:52;;;;;;;5.70;1.80;;;12.30;99.90;;;;;;5417872;26;20321;-71
2024/04/10 07:47:17;;;;;;;5.87;2.20;;;12.50;99.90;;;;;;5417437;26;20964;-72
2024/04/10 07:49:43;;;;;;;14.17;2.03;;;12.70;99.90;;;;;;5416979;26;20224;-72
2024/04/10 07:52:08;;;;;;;3.73;2.43;;;12.80;99.90;;;;;;5417491;26;20271;-72
2024/04/10 07:54:34;;;;;;;4.47;2.40;;;13.00;99.90;;;;;;5415652;26;20221;-72
2024/04/10 07:56:59;;;;;;;16.30;2.40;;;13.20;99.90;;;;;;5417354;26;20263;-70
2024/04/10 07:59:25;;;;;;;7.97;1.77;;;13.30;99.90;;;;;;5416924;26;20318;-72
2024/04/10 08:01:51;;;;;;;6.10;2.47;;;13.50;99.90;;;;;;5417402;26;20828;-70
2024/04/10 08:04:16;;;;;;;11.53;1.93;;;13.50;99.90;;;;;;5417268;26;20220;-71
2024/04/10 08:06:43;;;;;;;6.50;2.93;;;13.60;99.90;;;;;;5417314;26;20216;-71
2024/04/10 08:09:08;;;;;;;7.23;2.37;;;13.60;99.90;;;;;;5416757;26;20922;-71
2024/04/10 08:11:34;;;;;;;12.47;2.40;;;13.80;99.90;;;;;;5417264;26;20213;-71
2024/04/10 08:14:00;;;;;;;4.90;1.83;;;13.90;99.90;;;;;;5417198;26;20212;-71
2024/04/10 08:16:26;;;;;;;7.80;3.27;;;14.30;99.90;;;;;;5415458;26;20221;-71
2024/04/10 08:18:51;;;;;;;9.70;2.30;;;14.50;99.90;;;;;;5416763;26;20487;-71
2024/04/10 08:21:18;;;;;;;3.93;1.87;;;15.00;99.90;;;;;;5416931;26;20804;-72
2024/04/10 08:23:44;;;;;;;5.97;2.10;;;15.70;99.90;;;;;;5417226;26;20208;-71
2024/04/10 08:26:17;;;;;;;6.87;2.27;;;16.50;99.90;;;;;;5417100;26;20966;-72
2024/04/10 08:28:50;;;;;;;2.60;2.40;;;17.30;99.90;;;;;;5416832;26;20863;-71
2024/04/10 08:31:19;;;;;;;8.53;2.00;;;17.90;99.90;;;;;;5417149;26;20462;-72
2024/04/10 08:33:46;;;;;;;3.40;1.97;;;18.30;99.80;;;;;;5416988;26;20560;-72
2024/04/10 08:36:13;;;;;;;9.27;2.13;;;18.10;90.30;;;;;;5416334;26;20483;-71
2024/04/10 08:38:42;;;;;;;5.37;2.03;;;17.90;88.50;;;;;;5416555;26;21015;-71
2024/04/10 08:41:18;;;;;;;3.93;2.00;;;17.90;89.80;;;;;;5416995;26;21348;-71
2024/04/10 08:43:48;;;;;;;4.10;2.57;;;18.40;91.40;;;;;;5416907;26;20426;-71
2024/04/10 08:46:16;;;;;;;4.53;2.40;;;18.80;83.90;;;;;;5416678;26;20777;-72
2024/04/10 08:48:43;;;;;;;3.40;2.50;;;19.60;85.80;;;;;;5416592;26;20863;-71
2024/04/10 08:51:11;;;;;;;3.80;1.93;;;20.90;88.30;;;;;;5414863;26;20972;-71
2024/04/10 08:53:42;;;;;;;4.97;2.10;;;22.90;71.60;;;;;;5416654;26;20957;-71
2024/04/10 08:56:12;;;;;;;4.10;1.80;;;23.20;58.80;;;;;;5416644;26;20438;-72
2024/04/10 08:58:39;;;;;;;9.90;2.17;;;24.90;60.00;;;;;;5416204;26;20491;-71
2024/04/10 09:01:06;;;;;;;2.10;1.60;;;27.80;53.00;;;;;;5415031;26;20845;-72
2024/04/10 09:03:34;;;;;;;3.63;2.50;;;29.10;46.90;;;;;;5416247;26;20454;-71
2024/04/10 09:06:07;;;;;;;5.80;2.57;;;30.70;39.10;;;;;;5416977;26;20446;-72
2024/04/10 09:08:33;;;;;;;6.67;2.30;;;31.70;34.20;;;;;;5416044;26;20527;-73
2024/04/10 09:10:59;;;;;;;3.20;2.47;;;33.00;31.70;;;;;;5416452;26;20528;-72
2024/04/10 09:13:24;;;;;;;2.93;2.20;;;33.40;28.20;;;;;;5416243;26;20526;-72
2024/04/10 09:15:59;;;;;;;5.90;2.60;;;33.40;28.30;;;;;;5416423;26;21138;-72
2024/04/10 09:18:26;;;;;;;5.00;1.60;;;34.30;26.70;;;;;;5416366;26;20636;-73
2024/04/10 09:21:04;;;;;;;3.53;2.30;;;36.10;26.80;;;;;;5416179;26;20574;-72
2024/04/10 09:23:29;;;;;;;3.67;2.00;;;38.30;26.50;;;;;;5416306;26;20446;-73
2024/04/10 09:25:55;;;;;;;4.97;2.00;;;40.40;25.00;;;;;;5416197;26;20951;-72
2024/04/10 09:28:20;;;;;;;3.27;2.07;;;40.90;23.70;;;;;;5416485;26;20621;-73
2024/04/10 09:30:46;;;;;;;3.70;3.30;;;39.50;19.80;;;;;;5413644;26;20232;-73
2024/04/10 09:33:12;;;;;;;3.47;2.13;;;39.40;20.20;;;;;;5414463;26;20216;-72
2024/04/10 09:35:39;;;;;;;3.13;1.93;;;38.90;19.40;;;;;;5415628;26;20350;-72
2024/04/10 09:38:04;;;;;;;4.10;2.03;;;39.20;21.50;;;;;;5414346;26;20505;-73
2024/04/10 09:40:31;;;;;;;2.40;2.10;;;40.40;22.00;;;;;;5415313;26;20454;-72
2024/04/10 09:43:07;;;;;;;3.23;2.10;;;41.30;21.10;;;;;;5414199;26;20676;-74
2024/04/10 09:45:42;;;;;;;3.20;1.90;;;41.80;21.10;;;;;;5415903;26;20789;-72
2024/04/10 09:48:08;;;;;;;2.73;1.83;;;41.60;19.60;;;;;;5414404;26;20450;-72
2024/04/10 09:50:39;;;;;;;5.47;2.30;;;39.70;19.30;;;;;;5413438;26;21060;-72
2024/04/10 09:53:06;;;;;;;4.60;2.00;;;37.40;20.00;;;;;;5415738;26;20481;-72
2024/04/10 09:55:33;;;;;;;6.20;3.67;;;34.70;21.20;;;;;;5416088;26;20441;-71
2024/04/10 09:58:02;;;;;;;4.00;2.07;;;31.60;21.90;;;;;;5414037;26;20453;-71
2024/04/10 10:00:29;;;;;;;4.20;2.23;;;30.90;23.90;;;;;;5415204;26;20455;-71
2024/04/10 10:03:08;;;;;;;3.53;1.53;;;30.10;23.80;;;;;;5413865;26;20500;-71
2024/04/10 10:05:35;;;;;;;3.77;1.93;;;29.20;25.00;;;;;;5415583;26;20442;-72
2024/04/10 10:09:24;;;;;;;2.87;1.80;;;30.70;26.30;;;;;;5433307;26;20578;-72
2024/04/10 10:11:59;;;;;;;3.63;1.93;;;33.80;23.80;;;;;;5398412;26;20435;-72
2024/04/10 10:14:25;;;;;;;3.27;1.70;;;35.40;22.50;;;;;;5398311;26;20431;-72
2024/04/10 10:16:51;;;;;;;2.57;1.80;;;36.20;22.10;;;;;;5398378;26;20431;-72
2024/04/10 10:19:25;;;;;;;3.00;2.00;;;38.30;22.40;;;;;;5397759;26;20443;-72
2024/04/10 10:21:59;;;;;;;3.00;1.73;;;39.70;19.90;;;;;;5397261;26;20646;-72
2024/04/10 10:24:24;;;;;;;2.40;1.90;;;38.70;20.20;;;;;;5398170;26;21042;-72
2024/04/10 10:27:02;;;;;;;2.63;1.73;;;38.20;19.40;;;;;;5398206;26;20451;-72
2024/04/10 10:29:31;;;;;;;4.50;2.30;;;39.10;20.80;;;;;;5397593;26;20276;-72
2024/04/10 10:32:07;;;;;;;1.60;1.37;;;39.40;19.70;;;;;;5397704;26;20822;-72
2024/04/10 10:34:33;;;;;;;3.63;1.60;;;37.90;19.80;;;;;;5397959;26;20523;-72
2024/04/10 10:37:03;;;;;;;3.33;1.83;;;36.80;20.30;;;;;;5398042;26;20443;-72
2024/04/10 10:39:28;;;;;;;2.50;1.63;;;36.20;20.60;;;;;;5397550;26;20570;-73
2024/04/10 10:42:04;;;;;;;3.57;2.13;;;36.80;21.70;;;;;;5397944;26;20454;-73
2024/04/10 10:44:30;;;;;;;2.40;1.77;;;38.30;20.60;;;;;;5397891;26;20252;-73
2024/04/10 10:46:57;;;;;;;4.63;2.40;;;38.00;20.40;;;;;;5397781;26;20443;-72
2024/04/10 10:49:26;;;;;;;7.40;2.50;;;37.00;20.70;;;;;;5397310;26;20809;-72
2024/04/10 10:51:53;;;;;;;2.20;1.97;;;38.30;21.60;;;;;;5396189;26;20455;-73
2024/04/10 10:54:19;;;;;;;3.97;2.03;;;40.50;21.30;;;;;;5397982;26;20482;-73
2024/04/10 10:56:45;;;;;;;3.10;2.00;;;42.30;20.70;;;;;;5397816;26;20443;-72
2024/04/10 10:59:11;;;;;;;4.03;2.17;;;43.70;17.50;;;;;;5397494;26;20946;-72
2024/04/10 11:01:37;;;;;;;6.40;2.23;;;43.20;16.30;;;;;;5397591;26;20225;-73
2024/04/10 11:04:21;;;;;;;4.30;2.20;;;43.30;17.20;;;;;;5397676;26;20486;-72
2024/04/10 11:06:46;;;;;;;5.40;2.13;;;43.90;15.60;;;;;;5397694;26;20287;-72
2024/04/10 11:09:15;;;;;;;3.50;2.30;;;43.70;15.80;;;;;;5397129;26;20462;-73
2024/04/10 11:11:41;;;;;;;3.50;1.80;;;44.10;15.50;;;;;;5397636;26;20622;-73
2024/04/10 11:14:21;;;;;;;3.00;1.83;;;44.20;15.40;;;;;;5397417;26;20468;-72
2024/04/10 11:16:46;;;;;;;2.70;1.90;;;42.00;14.80;;;;;;5397603;26;20442;-72
2024/04/10 11:19:12;;;;;;;2.47;2.27;;;41.80;16.30;;;;;;5392031;26;20501;-72
2024/04/10 11:21:38;;;;;;;4.83;2.07;;;42.40;16.20;;;;;;5382277;26;20743;-72
2024/04/10 11:24:03;;;;;;;2.30;1.70;;;42.10;16.40;;;;;;5380543;26;20685;-72
2024/04/10 11:26:30;;;;;;;2.53;2.10;;;43.40;17.20;;;;;;5382238;26;20217;-72
2024/04/10 11:28:56;;;;;;;8.47;2.10;;;45.00;17.20;;;;;;5381579;26;20260;-73
2024/04/10 11:31:22;;;;;;;5.13;2.10;;;46.10;15.00;;;;;;5381955;26;20471;-72
2024/04/10 11:33:49;;;;;;;5.00;2.60;;;47.10;15.40;;;;;;5381647;26;20447;-73
2024/04/10 11:36:15;;;;;;;3.63;2.17;;;47.50;15.30;;;;;;5382132;26;20440;-73
2024/04/10 11:38:42;;;;;;;6.60;2.30;;;48.70;15.40;;;;;;5381728;26;20500;-73
2024/04/10 11:41:09;;;;;;;2.47;1.73;;;49.60;14.90;;;;;;5381996;26;20286;-71
2024/04/10 11:43:34;;;;;;;4.30;2.50;;;50.10;14.40;;;;;;5381720;26;20476;-71
2024/04/10 11:46:02;;;;;;;2.33;1.83;;;49.40;12.70;;;;;;5381559;26;20448;-71
2024/04/10 11:48:28;;;;;;;3.80;2.10;;;49.60;13.70;;;;;;5381570;26;20222;-71
2024/04/10 11:50:56;;;;;;;3.83;3.23;;;50.60;14.20;;;;;;5381159;26;20581;-72
2024/04/10 11:53:22;;;;;;;2.40;2.00;;;51.60;13.20;;;;;;5381976;26;20424;-72
2024/04/10 11:55:48;;;;;;;2.80;1.90;;;50.80;12.80;;;;;;5381632;26;20818;-71
2024/04/10 11:58:13;;;;;;;2.47;2.27;;;50.30;12.10;;;;;;5381329;26;20503;-72
2024/04/10 12:00:38;;;;;;;2.67;1.97;;;50.20;12.80;;;;;;5381103;26;20229;-72
2024/04/10 12:03:04;;;;;;;4.40;2.30;;;50.80;13.40;;;;;;5381563;26;20222;-72
2024/04/10 12:05:30;;;;;;;3.00;2.10;;;49.40;11.80;;;;;;5381880;26;20214;-71
2024/04/10 12:07:56;;;;;;;2.00;1.80;;;46.40;12.50;;;;;;5381445;26;20226;-72
2024/04/10 12:10:22;;;;;;;2.60;2.10;;;42.60;13.10;;;;;;5380938;26;20289;-73
2024/04/10 12:12:50;;;;;;;2.63;2.07;;;39.10;13.80;;;;;;5379379;26;21023;-73
2024/04/10 12:15:16;;;;;;;2.50;2.03;;;35.90;15.10;;;;;;5381358;26;20587;-72
2024/04/10 12:17:41;;;;;;;2.07;1.63;;;33.20;16.80;;;;;;5379590;26;20451;-71
2024/04/10 12:20:07;;;;;;;2.10;1.83;;;32.30;18.30;;;;;;5380973;26;20265;-71
2024/04/10 12:22:33;;;;;;;4.50;1.63;;;32.20;19.70;;;;;;5381123;26;20214;-71
2024/04/10 12:24:58;;;;;;;3.03;1.90;;;34.70;20.70;;;;;;5381291;26;20213;-72
2024/04/10 12:27:25;;;;;;;3.57;2.00;;;37.70;18.50;;;;;;5379581;26;20225;-72
2024/04/10 12:29:50;;;;;;;3.27;1.70;;;38.50;17.20;;;;;;5380921;26;20299;-72
2024/04/10 12:32:16;;;;;;;2.00;1.50;;;37.80;17.50;;;;;;5378049;26;20502;-72
2024/04/10 12:34:41;;;;;;;2.30;1.97;;;36.30;17.60;;;;;;5379472;26;20327;-71
2024/04/10 12:39:51;;;;;;;3.97;2.17;;;34.00;19.30;;;;;;5381120;26;20264;-71
2024/04/10 12:42:17;;;;;;;2.57;1.23;;;33.80;19.80;;;;;;5381188;26;20861;-72
2024/04/10 12:44:42;;;;;;;4.70;1.57;;;33.50;20.10;;;;;;5379231;26;20550;-72
2024/04/10 12:47:08;;;;;;;5.13;2.13;;;35.40;21.10;;;;;;5380917;26;20264;-73
2024/04/10 12:49:36;;;;;;;1.60;1.43;;;38.20;19.30;;;;;;5380880;26;20225;-73
2024/04/10 12:52:02;;;;;;;3.30;1.40;;;37.70;17.70;;;;;;5381154;26;20546;-73